Terminal Aerodrome Forecast
Issued by NWS

Home | Current Version | Previous Version | Text Only | Print | Product List | Glossary On
Versions: 1 2 3 4 5 6 7 8 9 10 11 12 13 14 15
000
FTAK31 PANC 280033 AAA
TAFAGK
TAF AMD
PAGK 280033Z 2801/2824 15014G24KT P6SM VCSH BKN060
     FM281200 17010KT P6SM VCSH BKN060
     FM282100 17015G25KT P6SM VCSH BKN070=

USA.gov is the U.S. government's official web portal to all federal, state and local government web resources and services.